createdAt,value
2024-01-20T00:02:01.311Z,155.85
2024-01-20T00:08:03.337Z,155.10
2024-01-20T00:14:05.610Z,150.70
2024-01-20T00:20:09.014Z,152.35
2024-01-20T00:26:10.951Z,146.48
2024-01-20T00:32:12.910Z,147.48
2024-01-20T00:38:15.560Z,152.55
2024-01-20T00:44:17.496Z,149.45
2024-01-20T00:50:19.524Z,149.45
2024-01-20T00:56:21.487Z,146.77
2024-01-20T01:02:25.186Z,146.48
2024-01-20T01:08:27.060Z,145.57
2024-01-20T01:14:28.911Z,146.32
2024-01-20T01:20:30.753Z,141.77
2024-01-20T01:26:33.589Z,145.05
2024-01-20T01:32:35.777Z,146.70
2024-01-20T01:38:37.677Z,146.98
2024-01-20T01:44:39.821Z,147.80
2024-01-20T01:50:42.059Z,152.85
2024-01-20T01:56:46.636Z,145.55
2024-01-20T02:02:49.361Z,152.30
2024-01-20T02:08:51.519Z,154.73
2024-01-20T02:14:54.069Z,153.90
2024-01-20T02:20:56.786Z,153.77
2024-01-20T02:26:59.627Z,149.05
2024-01-20T02:33:01.909Z,154.68
2024-01-20T02:39:03.910Z,159.95
2024-01-20T02:45:06.275Z,155.35
2024-01-20T02:51:08.202Z,154.82
2024-01-20T02:57:10.056Z,154.68
2024-01-20T03:03:12.102Z,146.50
2024-01-20T03:09:16.244Z,145.70
2024-01-20T03:15:18.441Z,143.00
2024-01-20T03:21:20.390Z,138.35
2024-01-20T03:27:22.265Z,137.35
2024-01-20T03:33:24.315Z,135.70
2024-01-20T03:39:26.533Z,131.48
2024-01-20T03:45:28.433Z,130.80
2024-01-20T03:51:30.360Z,132.70
2024-01-20T03:57:32.265Z,133.73
2024-01-20T04:03:34.523Z,133.48
2024-01-20T04:09:36.373Z,133.18
2024-01-20T04:15:38.189Z,135.75
2024-01-20T04:21:40.903Z,134.75
2024-01-20T04:27:42.719Z,130.70
2024-01-20T04:33:44.949Z,126.60
2024-01-20T04:39:46.836Z,125.05
2024-01-20T04:45:48.713Z,126.55
2024-01-20T04:51:51.850Z,125.53
2024-01-20T04:57:53.701Z,122.40
2024-01-20T05:03:55.587Z,124.47
2024-01-20T05:09:57.933Z,122.85
2024-01-20T05:16:00.996Z,125.20
2024-01-20T05:22:03.017Z,130.43
2024-01-20T05:28:05.523Z,128.30
2024-01-20T05:34:07.459Z,130.23
2024-01-20T05:40:09.755Z,126.30
2024-01-20T05:46:11.662Z,123.82
2024-01-20T05:52:13.499Z,131.48
2024-01-20T05:58:15.860Z,131.05
2024-01-20T06:04:21.000Z,130.85
2024-01-20T06:10:23.165Z,129.40
2024-01-20T06:16:25.065Z,133.30
2024-01-20T06:22:26.954Z,135.73
2024-01-20T06:28:29.028Z,134.82
2024-01-20T06:34:30.902Z,132.43
2024-01-20T06:40:32.835Z,137.63
2024-01-20T06:46:34.698Z,133.18
2024-01-20T06:52:36.533Z,135.95
2024-01-20T06:58:38.325Z,132.00
2024-01-20T07:04:40.165Z,133.52
2024-01-20T07:10:42.014Z,138.38
2024-01-20T07:16:43.820Z,135.85
2024-01-20T07:22:45.705Z,142.10
2024-01-20T07:28:47.909Z,142.65
2024-01-20T07:34:49.736Z,140.43
2024-01-20T07:40:54.856Z,142.70
2024-01-20T07:46:57.847Z,142.50
2024-01-20T07:52:59.775Z,141.00
2024-01-20T07:59:01.872Z,136.88
2024-01-20T08:05:04.145Z,144.68
2024-01-20T08:11:06.003Z,144.07
2024-01-20T08:17:08.563Z,144.32
2024-01-20T08:23:10.407Z,142.25
2024-01-20T08:29:12.453Z,145.70
2024-01-20T08:35:14.281Z,146.10
2024-01-20T08:41:17.008Z,143.85
2024-01-20T08:47:18.802Z,139.07
2024-01-20T08:53:20.595Z,148.65
2024-01-20T08:59:22.457Z,147.35
2024-01-20T09:05:24.412Z,152.00
2024-01-20T09:11:26.406Z,154.75
2024-01-20T09:17:28.536Z,152.27
2024-01-20T09:23:30.592Z,152.52
2024-01-20T09:29:32.677Z,144.75
2024-01-20T09:35:34.524Z,146.23
2024-01-20T09:41:36.410Z,145.18
2024-01-20T09:47:38.395Z,148.70
2024-01-20T09:53:40.831Z,145.70
2024-01-20T09:59:43.449Z,145.48
2024-01-20T10:05:45.293Z,153.70
2024-01-20T10:11:47.139Z,146.20
2024-01-20T10:17:49.482Z,155.05
2024-01-20T10:23:51.505Z,152.07
2024-01-20T10:29:53.571Z,159.57
2024-01-20T10:35:55.407Z,153.80
2024-01-20T10:41:58.612Z,150.68
2024-01-20T10:48:22.174Z,144.32
2024-01-20T10:54:24.601Z,134.52
2024-01-20T11:00:26.517Z,126.88
2024-01-20T11:06:28.705Z,129.10
2024-01-20T11:12:32.705Z,134.43
2024-01-20T11:18:41.883Z,135.07
2024-01-20T11:24:44.179Z,121.85
2024-01-20T11:30:46.480Z,117.72
2024-01-20T11:36:49.934Z,138.98
2024-01-20T11:42:51.901Z,149.48
2024-01-20T11:48:55.959Z,153.25
2024-01-20T11:54:57.936Z,150.13
2024-01-20T12:01:00.985Z,145.23
2024-01-20T12:07:03.077Z,143.30
2024-01-20T12:13:04.900Z,140.18
2024-01-20T12:19:07.376Z,131.77
2024-01-20T12:25:09.479Z,143.00
2024-01-20T12:31:14.283Z,141.00
2024-01-20T12:37:18.360Z,134.88
2024-01-20T12:43:20.258Z,143.57
2024-01-20T12:49:22.342Z,137.93
2024-01-20T12:55:24.240Z,136.35
2024-01-20T13:01:26.561Z,143.18
2024-01-20T13:07:28.617Z,139.75
2024-01-20T13:13:30.538Z,141.00
2024-01-20T13:19:32.532Z,136.50
2024-01-20T13:25:34.422Z,135.63
2024-01-20T13:31:36.373Z,127.22
2024-01-20T13:37:39.595Z,126.13
2024-01-20T13:43:41.554Z,123.05
2024-01-20T13:49:46.002Z,127.70
2024-01-20T13:55:47.965Z,125.55
2024-01-20T14:01:52.884Z,124.78
2024-01-20T14:07:54.732Z,118.07
2024-01-20T14:13:56.634Z,117.13
2024-01-20T14:19:58.538Z,111.25
2024-01-20T14:26:01.718Z,106.70
2024-01-20T14:32:04.296Z,116.65
2024-01-20T14:38:06.166Z,112.55
2024-01-20T14:44:07.969Z,103.97
2024-01-20T14:50:10.249Z,103.53
2024-01-20T14:56:12.913Z,100.38
2024-01-20T15:02:15.173Z,104.18
2024-01-20T15:08:17.156Z,108.47
2024-01-20T15:14:19.145Z,108.40
2024-01-20T15:20:22.396Z,98.05
2024-01-20T15:26:25.306Z,91.60
2024-01-20T15:32:27.509Z,85.88
2024-01-20T15:38:29.624Z,89.97
2024-01-20T15:44:31.606Z,90.13
2024-01-20T15:50:33.861Z,91.32
2024-01-20T15:56:41.822Z,85.85
2024-01-20T16:02:43.990Z,94.28
2024-01-20T16:08:45.972Z,97.22
2024-01-20T16:14:47.770Z,99.95
2024-01-20T16:20:49.648Z,100.63
2024-01-20T16:26:51.512Z,103.07
2024-01-20T16:32:53.844Z,104.90
2024-01-20T16:38:55.691Z,102.80
2024-01-20T16:44:57.538Z,102.65
2024-01-20T16:51:10.328Z,100.93
2024-01-20T16:57:17.146Z,99.32
2024-01-20T17:03:20.674Z,100.85
2024-01-20T17:09:22.528Z,101.03
2024-01-20T17:15:24.425Z,98.13
2024-01-20T17:21:26.499Z,95.47
2024-01-20T17:27:28.413Z,88.70
2024-01-20T17:33:30.394Z,82.25
2024-01-20T17:39:38.414Z,80.60
2024-01-20T17:45:40.284Z,81.53
2024-01-20T17:51:42.941Z,86.70
2024-01-20T17:57:46.818Z,94.40
2024-01-20T18:03:49.077Z,93.75
2024-01-20T18:09:51.036Z,83.35
2024-01-20T18:15:53.056Z,82.07
2024-01-20T18:21:55.026Z,74.20
2024-01-20T18:27:57.314Z,66.32
2024-01-20T18:33:59.644Z,60.50
2024-01-20T18:40:01.603Z,53.90
2024-01-20T18:46:03.511Z,39.10
2024-01-20T18:52:05.706Z,29.60
2024-01-20T18:58:07.682Z,21.60
2024-01-20T19:04:09.745Z,18.95
2024-01-20T19:10:11.994Z,15.60
2024-01-20T19:16:13.828Z,13.70
2024-01-20T19:22:15.669Z,9.80
2024-01-20T19:28:17.523Z,8.27
2024-01-20T19:34:19.856Z,8.20
2024-01-20T19:40:21.780Z,4.75
2024-01-20T19:46:23.563Z,3.40
2024-01-20T19:52:25.397Z,2.92
2024-01-20T19:58:27.166Z,4.32
2024-01-20T20:04:29.205Z,7.57
2024-01-20T20:10:31.191Z,5.97
2024-01-20T20:16:33.078Z,6.07
2024-01-20T20:22:35.190Z,7.20
2024-01-20T20:28:37.009Z,7.22
2024-01-20T20:34:38.918Z,6.68
2024-01-20T20:40:40.821Z,6.90
2024-01-20T20:46:42.657Z,7.60
2024-01-20T20:52:46.720Z,6.47
2024-01-20T20:58:48.705Z,6.55
2024-01-20T21:04:50.654Z,6.72
2024-01-20T21:10:52.723Z,5.85
2024-01-20T21:16:54.731Z,6.85
2024-01-20T21:22:56.615Z,7.97
2024-01-20T21:28:58.424Z,6.72
2024-01-20T21:35:00.421Z,6.32
2024-01-20T21:41:02.303Z,7.78
2024-01-20T21:47:04.835Z,7.18
2024-01-20T21:53:06.779Z,6.80
2024-01-20T21:59:08.617Z,6.25
2024-01-20T22:05:10.639Z,5.85
2024-01-20T22:11:12.470Z,4.95
2024-01-20T22:17:14.322Z,7.25
2024-01-20T22:23:16.299Z,5.97
2024-01-20T22:29:27.853Z,8.43
2024-01-20T22:35:32.961Z,5.78
2024-01-20T22:41:34.808Z,7.85
2024-01-20T22:47:37.510Z,8.43
2024-01-20T22:53:40.575Z,8.90
2024-01-20T22:59:42.898Z,9.27
2024-01-20T23:05:45.728Z,8.05
2024-01-20T23:11:47.632Z,8.25
2024-01-20T23:17:49.397Z,11.30
2024-01-20T23:23:51.197Z,8.48
2024-01-20T23:29:53.003Z,10.15
2024-01-20T23:35:54.828Z,12.30
2024-01-20T23:41:56.676Z,8.70
2024-01-20T23:47:59.084Z,10.70
2024-01-20T23:54:00.984Z,9.45
